createdAt,value
2023-03-06T00:01:42.289Z,2.53
2023-03-06T00:04:09.644Z,3.60
2023-03-06T00:06:36.767Z,2.90
2023-03-06T00:09:03.962Z,2.72
2023-03-06T00:11:31.039Z,3.63
2023-03-06T00:13:58.380Z,2.67
2023-03-06T00:16:25.775Z,4.90
2023-03-06T00:18:52.861Z,6.32
2023-03-06T00:21:20.096Z,3.90
2023-03-06T00:23:47.177Z,3.58
2023-03-06T00:26:14.351Z,3.17
2023-03-06T00:28:41.475Z,4.28
2023-03-06T00:31:08.280Z,3.47
2023-03-06T00:33:34.958Z,4.20
2023-03-06T00:36:05.277Z,3.97
2023-03-06T00:38:35.465Z,6.60
2023-03-06T00:41:13.040Z,3.83
2023-03-06T00:43:39.908Z,3.05
2023-03-06T00:46:07.095Z,3.67
2023-03-06T00:48:34.702Z,2.90
2023-03-06T00:51:03.106Z,3.38
2023-03-06T00:53:30.257Z,2.95
2023-03-06T00:55:57.341Z,3.28
2023-03-06T00:58:24.050Z,5.65
2023-03-06T01:00:50.829Z,3.17
2023-03-06T01:03:17.817Z,3.22
2023-03-06T01:05:44.566Z,4.18
2023-03-06T01:08:11.304Z,2.55
2023-03-06T01:10:39.992Z,3.95
2023-03-06T01:13:07.116Z,4.15
2023-03-06T01:15:33.861Z,2.72
2023-03-06T01:18:00.871Z,3.42
2023-03-06T01:20:27.947Z,2.92
2023-03-06T01:22:56.524Z,3.30
2023-03-06T01:25:26.738Z,3.58
2023-03-06T01:27:53.484Z,4.00
2023-03-06T01:30:20.808Z,4.00
2023-03-06T01:32:48.306Z,4.40
2023-03-06T01:35:15.060Z,3.72
2023-03-06T01:37:41.759Z,3.08
2023-03-06T01:40:10.451Z,3.53
2023-03-06T01:42:37.196Z,3.58
2023-03-06T01:45:09.431Z,3.42
2023-03-06T01:47:36.381Z,2.88
2023-03-06T01:50:05.372Z,4.13
2023-03-06T01:55:12.539Z,3.88
2023-03-06T01:57:44.514Z,3.53
2023-03-06T02:00:15.500Z,3.45
2023-03-06T02:02:46.837Z,3.50
2023-03-06T02:05:13.698Z,4.15
2023-03-06T02:07:42.382Z,3.33
2023-03-06T02:10:10.766Z,3.03
2023-03-06T02:12:40.401Z,4.65
2023-03-06T02:15:07.423Z,4.20
2023-03-06T02:17:35.601Z,3.55
2023-03-06T02:20:29.019Z,5.68
2023-03-06T02:23:11.076Z,7.40
2023-03-06T02:25:44.636Z,5.05
2023-03-06T02:28:17.679Z,4.32
2023-03-06T02:30:47.539Z,5.65
2023-03-06T02:33:19.335Z,6.70
2023-03-06T02:35:53.591Z,5.85
2023-03-06T02:38:24.830Z,5.85
2023-03-06T02:40:52.129Z,6.93
2023-03-06T02:43:24.656Z,7.47
2023-03-06T02:45:51.947Z,10.60
2023-03-06T02:48:19.487Z,8.57
2023-03-06T02:50:48.700Z,9.15
2023-03-06T02:53:16.777Z,9.88
2023-03-06T02:55:44.348Z,9.07
2023-03-06T02:58:11.571Z,10.27
2023-03-06T03:00:40.035Z,9.70
2023-03-06T03:03:07.425Z,10.40
2023-03-06T03:05:34.151Z,11.60
2023-03-06T03:08:01.004Z,11.18
2023-03-06T03:10:27.867Z,13.70
2023-03-06T03:12:54.768Z,11.70
2023-03-06T03:15:21.654Z,11.00
2023-03-06T03:17:48.422Z,12.40
2023-03-06T03:20:18.233Z,12.35
2023-03-06T03:22:54.017Z,11.73
2023-03-06T03:25:23.788Z,11.35
2023-03-06T03:27:50.933Z,11.95
2023-03-06T03:30:18.080Z,11.95
2023-03-06T03:32:44.903Z,12.18
2023-03-06T03:35:13.230Z,12.00
2023-03-06T03:37:40.023Z,11.68
2023-03-06T03:40:10.170Z,12.05
2023-03-06T03:42:36.835Z,11.30
2023-03-06T03:45:03.804Z,11.60
2023-03-06T03:47:30.588Z,10.40
2023-03-06T03:49:57.344Z,11.30
2023-03-06T03:52:24.270Z,10.98
2023-03-06T03:54:50.909Z,9.65
2023-03-06T03:57:18.582Z,10.23
2023-03-06T03:59:45.353Z,9.85
2023-03-06T04:02:12.053Z,10.32
2023-03-06T04:04:38.907Z,9.05
2023-03-06T04:07:05.615Z,8.85
2023-03-06T04:09:32.502Z,9.35
2023-03-06T04:11:59.287Z,11.13
2023-03-06T04:14:26.019Z,8.65
2023-03-06T04:16:52.836Z,8.73
2023-03-06T04:19:19.570Z,7.70
2023-03-06T04:21:46.444Z,8.18
2023-03-06T04:24:13.273Z,8.10
2023-03-06T04:26:40.148Z,7.97
2023-03-06T04:29:07.226Z,8.80
2023-03-06T04:31:35.018Z,9.13
2023-03-06T04:34:01.793Z,8.05
2023-03-06T04:36:31.187Z,7.82
2023-03-06T04:38:58.717Z,7.85
2023-03-06T04:41:25.517Z,8.55
2023-03-06T04:43:52.860Z,7.95
2023-03-06T04:46:19.762Z,7.15
2023-03-06T04:48:46.398Z,7.70
2023-03-06T04:51:14.503Z,6.60
2023-03-06T04:53:41.209Z,6.78
2023-03-06T04:56:08.186Z,6.15
2023-03-06T04:58:34.961Z,5.40
2023-03-06T05:01:01.863Z,5.60
2023-03-06T05:03:28.615Z,5.78
2023-03-06T05:05:55.353Z,5.63
2023-03-06T05:08:23.694Z,5.60
2023-03-06T05:10:59.066Z,4.25
2023-03-06T05:13:26.634Z,4.13
2023-03-06T05:15:53.990Z,4.72
2023-03-06T05:18:20.754Z,3.67
2023-03-06T05:20:47.614Z,4.07
2023-03-06T05:23:14.333Z,5.00
2023-03-06T05:25:41.761Z,3.85
2023-03-06T05:28:08.565Z,3.78
2023-03-06T05:30:35.939Z,5.07
2023-03-06T05:33:02.584Z,4.38
2023-03-06T05:35:29.337Z,4.13
2023-03-06T05:37:56.390Z,4.25
2023-03-06T05:40:23.057Z,3.03
2023-03-06T05:42:49.794Z,4.88
2023-03-06T05:45:16.819Z,6.47
2023-03-06T05:47:43.665Z,2.90
2023-03-06T05:50:11.250Z,4.28
2023-03-06T05:52:39.735Z,3.50
2023-03-06T05:55:07.441Z,5.25
2023-03-06T05:57:34.195Z,2.90
2023-03-06T06:00:00.873Z,3.38
2023-03-06T06:02:27.588Z,3.38
2023-03-06T06:04:54.309Z,4.93
2023-03-06T06:07:21.051Z,3.67
2023-03-06T06:09:47.827Z,2.58
2023-03-06T06:12:14.810Z,2.90
2023-03-06T06:14:41.619Z,5.63
2023-03-06T06:17:08.356Z,3.20
2023-03-06T06:19:35.127Z,4.22
2023-03-06T06:22:05.138Z,3.63
2023-03-06T06:24:32.439Z,4.28
2023-03-06T06:27:02.008Z,4.28
2023-03-06T06:29:31.043Z,3.13
2023-03-06T06:31:58.265Z,4.45
2023-03-06T06:34:25.629Z,3.47
2023-03-06T06:36:53.620Z,4.13
2023-03-06T06:39:23.050Z,2.22
2023-03-06T06:42:05.626Z,2.40
2023-03-06T06:44:38.562Z,3.00
2023-03-06T06:47:24.215Z,1.95
2023-03-06T06:49:56.544Z,2.05
2023-03-06T06:52:24.278Z,1.38
2023-03-06T06:54:51.775Z,2.95
2023-03-06T06:57:19.077Z,1.10
2023-03-06T06:59:45.959Z,1.23
2023-03-06T07:02:14.212Z,1.45
2023-03-06T07:04:56.274Z,1.45
2023-03-06T07:07:28.085Z,3.20
2023-03-06T07:09:56.247Z,1.80
2023-03-06T07:12:26.339Z,2.25
2023-03-06T07:14:53.537Z,1.33
2023-03-06T07:17:20.719Z,2.38
2023-03-06T07:19:48.543Z,1.83
2023-03-06T07:22:15.685Z,2.33
2023-03-06T07:24:42.392Z,3.00
2023-03-06T07:27:09.126Z,2.05
2023-03-06T07:29:36.273Z,1.70
2023-03-06T07:32:03.067Z,2.72
2023-03-06T07:34:30.895Z,1.85
2023-03-06T07:36:57.606Z,1.50
2023-03-06T07:39:24.449Z,2.00
2023-03-06T07:41:52.402Z,1.88
2023-03-06T07:44:20.643Z,1.73
2023-03-06T07:46:47.833Z,1.52
2023-03-06T07:49:15.062Z,1.58
2023-03-06T07:51:43.316Z,3.42
2023-03-06T07:54:10.450Z,2.45
2023-03-06T07:56:37.621Z,1.40
2023-03-06T07:59:04.819Z,1.40
2023-03-06T08:01:31.953Z,1.75
2023-03-06T08:04:01.975Z,2.05
2023-03-06T08:06:29.198Z,0.90
2023-03-06T08:08:57.093Z,1.23
2023-03-06T08:11:25.507Z,0.80
2023-03-06T08:13:53.639Z,1.40
2023-03-06T08:16:22.376Z,1.20
2023-03-06T08:18:49.260Z,1.05
2023-03-06T08:21:28.579Z,3.08
2023-03-06T08:23:55.933Z,1.15
2023-03-06T08:26:29.129Z,1.10
2023-03-06T08:28:57.627Z,1.10
2023-03-06T08:31:35.357Z,2.08
2023-03-06T08:34:07.776Z,0.77
2023-03-06T08:36:34.498Z,0.80
2023-03-06T08:39:01.680Z,0.98
2023-03-06T08:41:29.214Z,1.13
2023-03-06T08:43:56.243Z,0.98
2023-03-06T08:46:25.321Z,1.42
2023-03-06T08:48:53.198Z,0.75
2023-03-06T08:51:20.904Z,0.63
2023-03-06T08:53:48.097Z,1.05
2023-03-06T08:56:17.153Z,1.90
2023-03-06T08:58:44.152Z,0.77
2023-03-06T09:01:16.352Z,2.13
2023-03-06T09:03:43.841Z,1.08
2023-03-06T09:06:10.803Z,1.05
2023-03-06T09:08:43.036Z,0.50
2023-03-06T09:11:11.440Z,1.88
2023-03-06T09:13:38.231Z,2.17
2023-03-06T09:16:05.369Z,1.50
2023-03-06T09:18:32.074Z,1.15
2023-03-06T09:20:58.762Z,2.85
2023-03-06T09:23:25.429Z,1.05
2023-03-06T09:25:55.768Z,1.17
2023-03-06T09:28:22.963Z,0.60
2023-03-06T09:30:50.301Z,1.25
2023-03-06T09:33:17.482Z,0.50
2023-03-06T09:35:51.128Z,1.42
2023-03-06T09:38:19.088Z,2.33
2023-03-06T09:40:45.773Z,0.93
2023-03-06T09:43:20.474Z,2.20
2023-03-06T09:45:47.313Z,1.98
2023-03-06T09:48:15.826Z,2.97
2023-03-06T09:51:05.697Z,1.27
2023-03-06T09:53:55.348Z,0.80
2023-03-06T09:56:24.404Z,2.38
2023-03-06T09:58:55.750Z,1.63
2023-03-06T10:01:30.202Z,1.88
2023-03-06T10:04:06.115Z,1.67
2023-03-06T10:06:48.563Z,2.83
2023-03-06T10:09:41.505Z,1.48
2023-03-06T10:12:24.519Z,1.90
2023-03-06T10:15:05.262Z,1.02
2023-03-06T10:17:36.888Z,0.40
2023-03-06T10:20:29.907Z,0.70
2023-03-06T10:23:09.545Z,0.40
2023-03-06T10:25:50.724Z,0.60
2023-03-06T10:28:23.216Z,0.75
2023-03-06T10:31:01.736Z,1.65
2023-03-06T10:33:46.936Z,0.98
2023-03-06T10:36:19.191Z,1.00
2023-03-06T10:38:48.562Z,0.98
2023-03-06T10:41:32.318Z,0.98
2023-03-06T10:44:05.344Z,1.13
2023-03-06T10:46:42.394Z,1.48
2023-03-06T10:49:34.860Z,0.77
2023-03-06T10:52:20.862Z,1.23
2023-03-06T10:54:48.358Z,6.15
2023-03-06T10:57:31.957Z,0.77
2023-03-06T11:00:01.072Z,3.45
2023-03-06T11:02:29.429Z,1.75
2023-03-06T11:04:57.950Z,0.65
2023-03-06T11:07:27.363Z,0.75
2023-03-06T11:09:57.621Z,1.55
2023-03-06T11:12:44.576Z,1.05
2023-03-06T11:15:14.357Z,0.77
2023-03-06T11:17:54.799Z,1.65
2023-03-06T11:20:26.726Z,1.17
2023-03-06T11:23:07.532Z,2.20
2023-03-06T11:25:42.992Z,1.60
2023-03-06T11:28:32.831Z,1.00
2023-03-06T11:31:05.982Z,1.42
2023-03-06T11:33:42.555Z,1.05
2023-03-06T11:36:28.181Z,1.48
2023-03-06T11:38:55.639Z,2.72
2023-03-06T11:41:32.522Z,1.65
2023-03-06T11:44:36.719Z,3.33
2023-03-06T11:47:18.236Z,3.70
2023-03-06T11:49:50.676Z,1.02
2023-03-06T11:52:29.480Z,3.35
2023-03-06T11:57:54.342Z,1.60
2023-03-06T12:00:43.105Z,1.40
2023-03-06T12:03:33.016Z,1.95
2023-03-06T12:06:27.692Z,2.05
2023-03-06T12:09:14.439Z,1.73
2023-03-06T12:12:08.947Z,8.65
2023-03-06T12:14:41.718Z,2.70
2023-03-06T12:17:43.412Z,1.48
2023-03-06T12:20:23.629Z,1.98
2023-03-06T12:22:57.740Z,2.75
2023-03-06T12:25:45.034Z,2.58
2023-03-06T12:28:34.083Z,2.95
2023-03-06T12:31:45.491Z,1.92
2023-03-06T12:34:30.795Z,2.30
2023-03-06T12:37:17.476Z,1.90
2023-03-06T12:39:44.508Z,3.40
2023-03-06T12:42:29.752Z,4.15
2023-03-06T12:45:16.737Z,3.08
2023-03-06T12:47:45.553Z,2.72
2023-03-06T12:52:41.807Z,2.47
2023-03-06T12:55:14.763Z,2.97
2023-03-06T12:57:41.946Z,2.55
2023-03-06T13:00:31.778Z,2.63
2023-03-06T13:03:24.797Z,5.13
2023-03-06T13:05:52.131Z,4.22
2023-03-06T13:08:28.288Z,5.70
2023-03-06T13:11:18.732Z,5.18
2023-03-06T13:13:47.051Z,8.68
2023-03-06T13:16:22.156Z,4.30
2023-03-06T13:19:00.518Z,6.10
2023-03-06T13:21:43.045Z,4.65
2023-03-06T13:24:22.201Z,4.57
2023-03-06T13:26:53.502Z,4.60
2023-03-06T13:29:38.370Z,6.18
2023-03-06T13:32:16.260Z,5.70
2023-03-06T13:34:48.576Z,7.03
2023-03-06T13:37:23.229Z,5.72
2023-03-06T13:39:55.702Z,6.35
2023-03-06T13:42:42.605Z,6.70
2023-03-06T13:45:15.441Z,6.60
2023-03-06T13:48:33.672Z,6.30
2023-03-06T13:50:47.743Z,7.35
2023-03-06T13:53:40.758Z,7.85
2023-03-06T13:56:13.796Z,8.30
2023-03-06T13:58:59.676Z,8.38
2023-03-06T14:02:10.318Z,9.77
2023-03-06T14:04:37.358Z,10.38
2023-03-06T14:07:20.015Z,7.65
2023-03-06T14:09:56.214Z,9.27
2023-03-06T14:12:36.337Z,8.63
2023-03-06T14:15:20.113Z,8.93
2023-03-06T14:17:56.311Z,8.95
2023-03-06T14:20:32.009Z,8.23
2023-03-06T14:23:39.562Z,8.52
2023-03-06T14:26:23.387Z,7.03
2023-03-06T14:28:52.857Z,6.32
2023-03-06T14:31:22.643Z,6.18
2023-03-06T14:33:56.538Z,6.40
2023-03-06T14:36:45.041Z,6.97
2023-03-06T14:39:27.064Z,7.53
2023-03-06T14:42:17.299Z,6.10
2023-03-06T14:44:44.268Z,4.18
2023-03-06T14:47:26.545Z,5.13
2023-03-06T14:50:30.275Z,3.83
2023-03-06T14:52:59.285Z,4.65
2023-03-06T14:55:29.552Z,4.40
2023-03-06T14:58:11.371Z,4.95
2023-03-06T15:00:49.485Z,4.68
2023-03-06T15:03:34.131Z,6.75
2023-03-06T15:06:01.402Z,5.82
2023-03-06T15:08:31.169Z,5.80
2023-03-06T15:11:00.449Z,5.80
2023-03-06T15:13:29.912Z,5.70
2023-03-06T15:15:56.540Z,6.25
2023-03-06T15:18:33.702Z,5.53
2023-03-06T15:21:28.548Z,6.82
2023-03-06T15:23:57.340Z,6.50
2023-03-06T15:29:07.039Z,7.00
2023-03-06T15:31:41.135Z,6.55
2023-03-06T15:34:09.097Z,7.70
2023-03-06T15:36:41.397Z,6.88
2023-03-06T15:39:27.953Z,6.30
2023-03-06T15:42:19.071Z,6.75
2023-03-06T15:44:54.016Z,6.63
2023-03-06T15:47:21.966Z,7.03
2023-03-06T15:49:52.053Z,6.47
2023-03-06T15:52:22.765Z,7.07
2023-03-06T15:54:49.476Z,7.07
2023-03-06T15:57:26.207Z,6.50
2023-03-06T15:59:53.555Z,7.53
2023-03-06T16:02:22.249Z,9.30
2023-03-06T16:04:49.833Z,10.02
2023-03-06T16:07:16.883Z,10.35
2023-03-06T16:09:44.317Z,10.18
2023-03-06T16:12:16.723Z,11.30
2023-03-06T16:14:44.437Z,11.35
2023-03-06T16:17:12.356Z,12.18
2023-03-06T16:19:39.716Z,10.37
2023-03-06T16:22:06.412Z,11.52
2023-03-06T16:24:33.279Z,11.40
2023-03-06T16:27:01.543Z,12.23
2023-03-06T16:29:29.349Z,13.02
2023-03-06T16:31:57.582Z,12.45
2023-03-06T16:34:24.827Z,13.48
2023-03-06T16:36:52.046Z,15.65
2023-03-06T16:39:21.713Z,15.32
2023-03-06T16:41:52.278Z,15.55
2023-03-06T16:44:19.732Z,16.45
2023-03-06T16:46:49.977Z,16.33
2023-03-06T16:49:21.968Z,17.85
2023-03-06T16:51:49.289Z,18.83
2023-03-06T16:54:16.018Z,18.80
2023-03-06T16:56:43.033Z,17.27
2023-03-06T16:59:10.315Z,19.20
2023-03-06T17:01:37.688Z,19.38
2023-03-06T17:04:04.714Z,19.17
2023-03-06T17:06:31.450Z,19.05
2023-03-06T17:08:59.691Z,20.20
2023-03-06T17:11:27.272Z,19.17
2023-03-06T17:13:55.226Z,18.85
2023-03-06T17:16:22.383Z,19.40
2023-03-06T17:18:49.700Z,18.73
2023-03-06T17:21:16.836Z,20.60
2023-03-06T17:23:44.494Z,19.52
2023-03-06T17:26:18.878Z,17.67
2023-03-06T17:28:46.638Z,16.98
2023-03-06T17:31:15.779Z,17.27
2023-03-06T17:33:43.478Z,16.42
2023-03-06T17:36:11.008Z,16.98
2023-03-06T17:38:38.083Z,15.10
2023-03-06T17:41:07.343Z,16.25
2023-03-06T17:43:34.102Z,16.15
2023-03-06T17:46:05.888Z,17.77
2023-03-06T17:48:35.266Z,17.23
2023-03-06T17:51:02.277Z,19.05
2023-03-06T17:53:29.298Z,17.67
2023-03-06T17:56:02.861Z,16.75
2023-03-06T17:58:29.520Z,19.83
2023-03-06T18:00:59.264Z,19.80
2023-03-06T18:03:26.258Z,19.92
2023-03-06T18:06:00.833Z,21.48
2023-03-06T18:08:30.576Z,20.75
2023-03-06T18:11:03.466Z,21.40
2023-03-06T18:13:33.744Z,23.85
2023-03-06T18:16:01.047Z,21.67
2023-03-06T18:18:28.429Z,23.73
2023-03-06T18:20:55.364Z,24.35
2023-03-06T18:23:26.694Z,24.85
2023-03-06T18:25:53.383Z,25.00
2023-03-06T18:28:20.055Z,26.02
2023-03-06T18:30:46.753Z,24.23
2023-03-06T18:33:13.564Z,23.45
2023-03-06T18:35:43.936Z,24.90
2023-03-06T18:38:10.684Z,23.83
2023-03-06T18:40:37.512Z,24.48
2023-03-06T18:43:04.470Z,30.38
2023-03-06T18:45:31.365Z,24.50
2023-03-06T18:47:58.056Z,26.80
2023-03-06T18:50:24.866Z,24.85
2023-03-06T18:52:51.512Z,22.65
2023-03-06T18:55:18.151Z,30.30
2023-03-06T18:57:44.823Z,26.67
2023-03-06T19:00:12.279Z,28.50
2023-03-06T19:02:39.016Z,26.00
2023-03-06T19:05:06.104Z,28.38
2023-03-06T19:07:32.850Z,26.60
2023-03-06T19:09:59.565Z,24.83
2023-03-06T19:12:26.297Z,28.38
2023-03-06T19:14:53.020Z,27.77
2023-03-06T19:17:19.828Z,26.65
2023-03-06T19:19:49.609Z,26.13
2023-03-06T19:22:18.406Z,27.88
2023-03-06T19:27:14.523Z,28.77
2023-03-06T19:29:46.760Z,33.40
2023-03-06T19:32:13.750Z,28.60
2023-03-06T19:34:40.544Z,28.05
2023-03-06T19:37:10.732Z,33.30
2023-03-06T19:39:37.449Z,29.23
2023-03-06T19:42:06.947Z,32.20
2023-03-06T19:44:36.688Z,30.23
2023-03-06T19:47:03.422Z,30.95
2023-03-06T19:49:30.110Z,27.45
2023-03-06T19:51:57.196Z,33.55
2023-03-06T19:54:28.036Z,36.33
2023-03-06T19:56:54.781Z,32.35
2023-03-06T19:59:21.451Z,37.33
2023-03-06T20:01:50.468Z,33.28
2023-03-06T20:04:22.481Z,30.48
2023-03-06T20:06:52.963Z,35.03
2023-03-06T20:09:19.859Z,34.05
2023-03-06T20:11:46.650Z,32.45
2023-03-06T20:14:18.253Z,34.35
2023-03-06T20:16:45.212Z,32.40
2023-03-06T20:19:12.067Z,36.25
2023-03-06T20:21:38.771Z,33.78
2023-03-06T20:24:07.695Z,33.40
2023-03-06T20:26:36.669Z,37.95
2023-03-06T20:29:03.718Z,36.75
2023-03-06T20:31:33.639Z,33.80
2023-03-06T20:34:04.225Z,28.88
2023-03-06T20:36:33.885Z,35.13
2023-03-06T20:39:04.319Z,29.65
2023-03-06T20:41:31.525Z,31.10
2023-03-06T20:44:00.014Z,30.95
2023-03-06T20:46:27.421Z,33.45
2023-03-06T20:48:54.849Z,29.42
2023-03-06T20:51:28.547Z,30.05
2023-03-06T20:53:56.122Z,26.95
2023-03-06T20:56:25.564Z,28.40
2023-03-06T20:58:52.674Z,28.55
2023-03-06T21:01:21.517Z,28.38
2023-03-06T21:06:15.789Z,26.77
2023-03-06T21:08:42.721Z,28.75
2023-03-06T21:11:10.011Z,28.25
2023-03-06T21:13:36.705Z,28.50
2023-03-06T21:16:07.614Z,30.33
2023-03-06T21:18:34.295Z,27.15
2023-03-06T21:21:09.577Z,27.00
2023-03-06T21:23:36.962Z,28.23
2023-03-06T21:26:04.153Z,27.90
2023-03-06T21:28:31.052Z,27.20
2023-03-06T21:31:00.834Z,28.80
2023-03-06T21:33:27.596Z,28.42
2023-03-06T21:35:54.443Z,26.25
2023-03-06T21:38:21.231Z,29.23
2023-03-06T21:40:47.939Z,27.63
2023-03-06T21:43:17.391Z,24.27
2023-03-06T21:45:49.166Z,23.52
2023-03-06T21:48:17.857Z,20.48
2023-03-06T21:50:49.875Z,19.77
2023-03-06T21:53:20.441Z,20.35
2023-03-06T21:55:47.123Z,18.20
2023-03-06T21:58:13.850Z,19.63
2023-03-06T22:00:43.656Z,19.00
2023-03-06T22:03:10.890Z,19.58
2023-03-06T22:05:37.605Z,16.05
2023-03-06T22:08:04.325Z,16.38
2023-03-06T22:10:30.986Z,16.02
2023-03-06T22:12:57.652Z,16.23
2023-03-06T22:15:27.394Z,15.30
2023-03-06T22:17:54.196Z,14.85
2023-03-06T22:20:20.831Z,13.00
2023-03-06T22:22:47.521Z,11.65
2023-03-06T22:25:14.852Z,12.18
2023-03-06T22:27:41.520Z,10.68
2023-03-06T22:30:11.024Z,9.85
2023-03-06T22:32:37.769Z,8.98
2023-03-06T22:35:04.914Z,9.40
2023-03-06T22:37:31.877Z,7.72
2023-03-06T22:39:58.487Z,6.50
2023-03-06T22:42:25.254Z,6.93
2023-03-06T22:44:51.973Z,6.45
2023-03-06T22:47:18.718Z,5.85
2023-03-06T22:49:45.439Z,4.72
2023-03-06T22:52:15.118Z,6.45
2023-03-06T22:54:41.995Z,5.07
2023-03-06T22:57:08.643Z,6.10
2023-03-06T22:59:35.367Z,5.32
2023-03-06T23:02:03.971Z,6.65
2023-03-06T23:04:30.764Z,4.18
2023-03-06T23:06:57.465Z,5.18
2023-03-06T23:09:25.104Z,6.63
2023-03-06T23:11:52.202Z,5.28
2023-03-06T23:14:19.468Z,6.40
2023-03-06T23:16:46.413Z,4.75
2023-03-06T23:19:14.232Z,4.32
2023-03-06T23:21:41.871Z,9.27
2023-03-06T23:24:09.579Z,10.23
2023-03-06T23:26:36.335Z,11.15
2023-03-06T23:29:07.230Z,8.60
2023-03-06T23:31:33.872Z,7.20
2023-03-06T23:34:02.006Z,7.22
2023-03-06T23:36:29.865Z,9.35
2023-03-06T23:38:56.722Z,7.20
2023-03-06T23:41:23.828Z,8.98
2023-03-06T23:43:51.991Z,10.93
2023-03-06T23:46:23.372Z,9.45
2023-03-06T23:48:50.128Z,9.23
2023-03-06T23:51:22.161Z,9.27
2023-03-06T23:53:55.388Z,10.68
2023-03-06T23:56:22.941Z,10.68
2023-03-06T23:58:49.726Z,11.95
